sensor_id;sensor_type;location;lat;lon;timestamp;P1;durP1;ratioP1;P2;durP2;ratioP2
66272;SDS011;58450;52.150;4.466;2022-12-29T00:01:06;4.00;;;2.30;;
66272;SDS011;58450;52.150;4.466;2022-12-29T00:03:34;6.57;;;2.50;;
66272;SDS011;58450;52.150;4.466;2022-12-29T00:06:01;3.40;;;2.30;;
66272;SDS011;58450;52.150;4.466;2022-12-29T00:08:29;4.88;;;2.35;;
66272;SDS011;58450;52.150;4.466;2022-12-29T00:11:06;5.07;;;2.13;;
66272;SDS011;58450;52.150;4.466;2022-12-29T00:13:34;4.25;;;1.80;;
66272;SDS011;58450;52.150;4.466;2022-12-29T00:16:21;2.80;;;1.80;;
66272;SDS011;58450;52.150;4.466;2022-12-29T00:18:48;3.35;;;1.70;;
66272;SDS011;58450;52.150;4.466;2022-12-29T00:21:18;5.18;;;2.05;;
66272;SDS011;58450;52.150;4.466;2022-12-29T00:24:05;3.80;;;1.90;;
66272;SDS011;58450;52.150;4.466;2022-12-29T00:26:58;2.20;;;1.50;;
66272;SDS011;58450;52.150;4.466;2022-12-29T00:29:54;3.40;;;1.67;;
66272;SDS011;58450;52.150;4.466;2022-12-29T00:32:42;6.80;;;1.90;;
66272;SDS011;58450;52.150;4.466;2022-12-29T00:35:28;3.70;;;1.80;;
66272;SDS011;58450;52.150;4.466;2022-12-29T00:37:59;6.05;;;1.63;;
66272;SDS011;58450;52.150;4.466;2022-12-29T00:40:54;3.15;;;1.70;;
66272;SDS011;58450;52.150;4.466;2022-12-29T00:43:39;4.05;;;1.40;;
66272;SDS011;58450;52.150;4.466;2022-12-29T00:46:24;2.63;;;1.35;;
66272;SDS011;58450;52.150;4.466;2022-12-29T00:48:53;3.80;;;1.40;;
66272;SDS011;58450;52.150;4.466;2022-12-29T00:51:38;2.78;;;1.60;;
66272;SDS011;58450;52.150;4.466;2022-12-29T00:54:06;2.03;;;1.60;;
66272;SDS011;58450;52.150;4.466;2022-12-29T00:56:33;2.40;;;1.30;;
66272;SDS011;58450;52.150;4.466;2022-12-29T00:59:01;4.20;;;1.50;;
66272;SDS011;58450;52.150;4.466;2022-12-29T01:01:28;4.32;;;1.83;;
66272;SDS011;58450;52.150;4.466;2022-12-29T01:03:58;4.40;;;1.77;;
66272;SDS011;58450;52.150;4.466;2022-12-29T01:06:25;2.75;;;1.40;;
66272;SDS011;58450;52.150;4.466;2022-12-29T01:08:53;2.65;;;1.30;;
66272;SDS011;58450;52.150;4.466;2022-12-29T01:11:35;4.63;;;1.50;;
66272;SDS011;58450;52.150;4.466;2022-12-29T01:14:02;2.85;;;1.45;;
66272;SDS011;58450;52.150;4.466;2022-12-29T01:16:31;3.15;;;1.60;;
66272;SDS011;58450;52.150;4.466;2022-12-29T01:19:00;2.40;;;1.23;;
66272;SDS011;58450;52.150;4.466;2022-12-29T01:21:28;4.90;;;1.67;;
66272;SDS011;58450;52.150;4.466;2022-12-29T01:23:56;2.55;;;1.40;;
66272;SDS011;58450;52.150;4.466;2022-12-29T01:26:23;3.20;;;1.40;;
66272;SDS011;58450;52.150;4.466;2022-12-29T01:28:51;2.20;;;1.30;;
66272;SDS011;58450;52.150;4.466;2022-12-29T01:31:19;5.78;;;1.45;;
66272;SDS011;58450;52.150;4.466;2022-12-29T01:33:46;3.85;;;1.08;;
66272;SDS011;58450;52.150;4.466;2022-12-29T01:36:16;4.47;;;1.58;;
66272;SDS011;58450;52.150;4.466;2022-12-29T01:38:45;3.92;;;1.13;;
66272;SDS011;58450;52.150;4.466;2022-12-29T01:41:13;4.30;;;1.58;;
66272;SDS011;58450;52.150;4.466;2022-12-29T01:43:43;9.00;;;1.95;;
66272;SDS011;58450;52.150;4.466;2022-12-29T01:46:22;6.03;;;1.13;;
66272;SDS011;58450;52.150;4.466;2022-12-29T01:48:54;10.07;;;1.42;;
66272;SDS011;58450;52.150;4.466;2022-12-29T01:51:33;6.85;;;1.20;;
66272;SDS011;58450;52.150;4.466;2022-12-29T01:54:05;6.53;;;1.42;;
66272;SDS011;58450;52.150;4.466;2022-12-29T01:56:40;5.93;;;1.40;;
66272;SDS011;58450;52.150;4.466;2022-12-29T01:59:08;4.55;;;1.42;;
66272;SDS011;58450;52.150;4.466;2022-12-29T02:01:42;6.57;;;1.33;;
66272;SDS011;58450;52.150;4.466;2022-12-29T02:04:09;9.90;;;1.45;;
66272;SDS011;58450;52.150;4.466;2022-12-29T02:06:41;8.38;;;1.60;;
66272;SDS011;58450;52.150;4.466;2022-12-29T02:09:16;5.65;;;1.38;;
66272;SDS011;58450;52.150;4.466;2022-12-29T02:11:44;7.43;;;1.40;;
66272;SDS011;58450;52.150;4.466;2022-12-29T02:14:13;6.07;;;1.50;;
66272;SDS011;58450;52.150;4.466;2022-12-29T02:16:49;5.07;;;1.08;;
66272;SDS011;58450;52.150;4.466;2022-12-29T02:19:50;5.20;;;1.17;;
66272;SDS011;58450;52.150;4.466;2022-12-29T02:22:59;6.20;;;1.13;;
66272;SDS011;58450;52.150;4.466;2022-12-29T02:25:58;5.70;;;1.20;;
66272;SDS011;58450;52.150;4.466;2022-12-29T02:29:17;5.05;;;1.13;;
66272;SDS011;58450;52.150;4.466;2022-12-29T02:32:18;6.65;;;1.20;;
66272;SDS011;58450;52.150;4.466;2022-12-29T02:34:58;3.60;;;1.00;;
66272;SDS011;58450;52.150;4.466;2022-12-29T02:37:41;6.70;;;1.73;;
66272;SDS011;58450;52.150;4.466;2022-12-29T02:40:18;8.18;;;1.30;;
66272;SDS011;58450;52.150;4.466;2022-12-29T02:42:58;8.95;;;1.38;;
66272;SDS011;58450;52.150;4.466;2022-12-29T02:45:41;9.63;;;1.65;;
66272;SDS011;58450;52.150;4.466;2022-12-29T02:48:20;8.10;;;1.50;;
66272;SDS011;58450;52.150;4.466;2022-12-29T02:50:57;7.32;;;1.58;;
66272;SDS011;58450;52.150;4.466;2022-12-29T02:53:29;8.02;;;1.30;;
66272;SDS011;58450;52.150;4.466;2022-12-29T02:56:18;6.65;;;1.63;;
66272;SDS011;58450;52.150;4.466;2022-12-29T02:58:46;8.27;;;1.77;;
66272;SDS011;58450;52.150;4.466;2022-12-29T03:01:18;13.27;;;2.00;;
66272;SDS011;58450;52.150;4.466;2022-12-29T03:04:06;7.97;;;1.67;;
66272;SDS011;58450;52.150;4.466;2022-12-29T03:06:55;12.27;;;2.10;;
66272;SDS011;58450;52.150;4.466;2022-12-29T03:09:37;11.13;;;1.92;;
66272;SDS011;58450;52.150;4.466;2022-12-29T03:12:19;15.07;;;2.20;;
66272;SDS011;58450;52.150;4.466;2022-12-29T03:15:16;12.23;;;2.17;;
66272;SDS011;58450;52.150;4.466;2022-12-29T03:18:13;13.00;;;2.00;;
66272;SDS011;58450;52.150;4.466;2022-12-29T03:20:52;8.13;;;1.95;;
66272;SDS011;58450;52.150;4.466;2022-12-29T03:23:28;13.75;;;2.40;;
66272;SDS011;58450;52.150;4.466;2022-12-29T03:25:58;14.85;;;2.45;;
66272;SDS011;58450;52.150;4.466;2022-12-29T03:28:35;13.75;;;2.05;;
66272;SDS011;58450;52.150;4.466;2022-12-29T03:31:11;13.45;;;2.50;;
66272;SDS011;58450;52.150;4.466;2022-12-29T03:33:41;11.93;;;2.03;;
66272;SDS011;58450;52.150;4.466;2022-12-29T03:36:14;7.95;;;2.10;;
66272;SDS011;58450;52.150;4.466;2022-12-29T03:38:55;10.60;;;2.92;;
66272;SDS011;58450;52.150;4.466;2022-12-29T03:41:33;12.68;;;2.00;;
66272;SDS011;58450;52.150;4.466;2022-12-29T03:44:05;12.45;;;2.72;;
66272;SDS011;58450;52.150;4.466;2022-12-29T03:46:33;14.50;;;2.10;;
66272;SDS011;58450;52.150;4.466;2022-12-29T03:49:01;11.57;;;2.40;;
66272;SDS011;58450;52.150;4.466;2022-12-29T03:51:30;11.93;;;2.05;;
66272;SDS011;58450;52.150;4.466;2022-12-29T03:53:57;14.35;;;2.20;;
66272;SDS011;58450;52.150;4.466;2022-12-29T03:56:25;11.43;;;1.73;;
66272;SDS011;58450;52.150;4.466;2022-12-29T03:58:52;11.23;;;2.15;;
66272;SDS011;58450;52.150;4.466;2022-12-29T04:01:20;8.20;;;1.92;;
66272;SDS011;58450;52.150;4.466;2022-12-29T04:03:47;12.52;;;2.33;;
66272;SDS011;58450;52.150;4.466;2022-12-29T04:06:15;10.05;;;1.98;;
66272;SDS011;58450;52.150;4.466;2022-12-29T04:08:44;8.63;;;2.00;;
66272;SDS011;58450;52.150;4.466;2022-12-29T04:11:11;10.77;;;2.05;;
66272;SDS011;58450;52.150;4.466;2022-12-29T04:13:39;12.88;;;2.40;;
66272;SDS011;58450;52.150;4.466;2022-12-29T04:16:07;9.35;;;1.85;;
66272;SDS011;58450;52.150;4.466;2022-12-29T04:18:35;11.82;;;2.40;;
66272;SDS011;58450;52.150;4.466;2022-12-29T04:21:02;12.25;;;2.42;;
66272;SDS011;58450;52.150;4.466;2022-12-29T04:23:32;12.35;;;2.03;;
66272;SDS011;58450;52.150;4.466;2022-12-29T04:26:03;17.65;;;2.88;;
66272;SDS011;58450;52.150;4.466;2022-12-29T04:28:34;18.15;;;3.00;;
66272;SDS011;58450;52.150;4.466;2022-12-29T04:31:02;17.23;;;2.75;;
66272;SDS011;58450;52.150;4.466;2022-12-29T04:33:31;16.45;;;2.42;;
66272;SDS011;58450;52.150;4.466;2022-12-29T04:35:58;16.90;;;2.30;;
66272;SDS011;58450;52.150;4.466;2022-12-29T04:38:26;17.08;;;2.60;;
66272;SDS011;58450;52.150;4.466;2022-12-29T04:43:23;13.50;;;2.28;;
66272;SDS011;58450;52.150;4.466;2022-12-29T04:45:50;12.82;;;2.05;;
66272;SDS011;58450;52.150;4.466;2022-12-29T04:48:18;10.52;;;1.73;;
66272;SDS011;58450;52.150;4.466;2022-12-29T04:50:47;11.88;;;1.98;;
66272;SDS011;58450;52.150;4.466;2022-12-29T04:53:16;12.50;;;2.28;;
66272;SDS011;58450;52.150;4.466;2022-12-29T04:55:47;14.30;;;2.45;;
66272;SDS011;58450;52.150;4.466;2022-12-29T04:58:16;13.57;;;2.65;;
66272;SDS011;58450;52.150;4.466;2022-12-29T05:00:45;10.82;;;2.65;;
66272;SDS011;58450;52.150;4.466;2022-12-29T05:03:13;12.18;;;2.25;;
66272;SDS011;58450;52.150;4.466;2022-12-29T05:05:41;11.90;;;2.03;;
66272;SDS011;58450;52.150;4.466;2022-12-29T05:08:08;15.77;;;2.38;;
66272;SDS011;58450;52.150;4.466;2022-12-29T05:10:36;15.23;;;2.00;;
66272;SDS011;58450;52.150;4.466;2022-12-29T05:13:03;11.25;;;2.05;;
66272;SDS011;58450;52.150;4.466;2022-12-29T05:15:31;13.02;;;2.58;;
66272;SDS011;58450;52.150;4.466;2022-12-29T05:18:00;12.32;;;2.03;;
66272;SDS011;58450;52.150;4.466;2022-12-29T05:20:27;10.05;;;2.17;;
66272;SDS011;58450;52.150;4.466;2022-12-29T05:22:55;10.77;;;2.10;;
66272;SDS011;58450;52.150;4.466;2022-12-29T05:25:23;12.55;;;2.33;;
66272;SDS011;58450;52.150;4.466;2022-12-29T05:27:50;15.68;;;1.95;;
66272;SDS011;58450;52.150;4.466;2022-12-29T05:30:18;11.82;;;2.50;;
66272;SDS011;58450;52.150;4.466;2022-12-29T05:32:45;16.10;;;2.20;;
66272;SDS011;58450;52.150;4.466;2022-12-29T05:35:14;16.52;;;2.33;;
66272;SDS011;58450;52.150;4.466;2022-12-29T05:37:42;17.33;;;2.72;;
66272;SDS011;58450;52.150;4.466;2022-12-29T05:40:10;11.27;;;2.72;;
66272;SDS011;58450;52.150;4.466;2022-12-29T05:42:38;17.45;;;2.65;;
66272;SDS011;58450;52.150;4.466;2022-12-29T05:45:07;16.20;;;2.60;;
66272;SDS011;58450;52.150;4.466;2022-12-29T05:47:35;17.98;;;2.72;;
66272;SDS011;58450;52.150;4.466;2022-12-29T05:50:03;18.20;;;2.78;;
66272;SDS011;58450;52.150;4.466;2022-12-29T05:52:33;19.08;;;2.75;;
66272;SDS011;58450;52.150;4.466;2022-12-29T05:55:01;19.15;;;3.58;;
66272;SDS011;58450;52.150;4.466;2022-12-29T05:57:28;14.00;;;2.47;;
66272;SDS011;58450;52.150;4.466;2022-12-29T05:59:56;16.92;;;2.53;;
66272;SDS011;58450;52.150;4.466;2022-12-29T06:02:23;14.85;;;2.65;;
66272;SDS011;58450;52.150;4.466;2022-12-29T06:04:51;12.65;;;2.65;;
66272;SDS011;58450;52.150;4.466;2022-12-29T06:07:18;17.75;;;2.72;;
66272;SDS011;58450;52.150;4.466;2022-12-29T06:09:47;16.65;;;2.65;;
66272;SDS011;58450;52.150;4.466;2022-12-29T06:12:15;13.88;;;2.55;;
66272;SDS011;58450;52.150;4.466;2022-12-29T06:14:43;12.05;;;2.50;;
66272;SDS011;58450;52.150;4.466;2022-12-29T06:17:10;15.32;;;2.40;;
66272;SDS011;58450;52.150;4.466;2022-12-29T06:19:38;14.48;;;2.60;;
66272;SDS011;58450;52.150;4.466;2022-12-29T06:22:05;16.65;;;2.67;;
66272;SDS011;58450;52.150;4.466;2022-12-29T06:24:33;14.20;;;2.58;;
66272;SDS011;58450;52.150;4.466;2022-12-29T06:27:02;20.33;;;3.08;;
66272;SDS011;58450;52.150;4.466;2022-12-29T06:29:30;15.27;;;2.95;;
66272;SDS011;58450;52.150;4.466;2022-12-29T06:31:57;15.63;;;3.35;;
66272;SDS011;58450;52.150;4.466;2022-12-29T06:34:25;17.50;;;3.20;;
66272;SDS011;58450;52.150;4.466;2022-12-29T06:36:52;18.15;;;3.10;;
66272;SDS011;58450;52.150;4.466;2022-12-29T06:39:20;16.13;;;2.95;;
66272;SDS011;58450;52.150;4.466;2022-12-29T06:41:47;22.73;;;3.90;;
66272;SDS011;58450;52.150;4.466;2022-12-29T06:44:16;20.67;;;3.42;;
66272;SDS011;58450;52.150;4.466;2022-12-29T06:46:44;23.92;;;4.10;;
66272;SDS011;58450;52.150;4.466;2022-12-29T06:49:11;21.42;;;3.58;;
66272;SDS011;58450;52.150;4.466;2022-12-29T06:51:39;19.40;;;3.13;;
66272;SDS011;58450;52.150;4.466;2022-12-29T06:54:07;22.80;;;3.60;;
66272;SDS011;58450;52.150;4.466;2022-12-29T06:56:35;19.90;;;3.40;;
66272;SDS011;58450;52.150;4.466;2022-12-29T06:59:02;20.88;;;3.63;;
66272;SDS011;58450;52.150;4.466;2022-12-29T07:01:31;20.65;;;3.53;;
66272;SDS011;58450;52.150;4.466;2022-12-29T07:04:01;25.40;;;4.00;;
66272;SDS011;58450;52.150;4.466;2022-12-29T07:06:29;27.85;;;3.35;;
66272;SDS011;58450;52.150;4.466;2022-12-29T07:08:56;20.73;;;4.30;;
66272;SDS011;58450;52.150;4.466;2022-12-29T07:11:24;16.48;;;3.20;;
66272;SDS011;58450;52.150;4.466;2022-12-29T07:13:52;23.65;;;3.80;;
66272;SDS011;58450;52.150;4.466;2022-12-29T07:16:19;18.73;;;3.75;;
66272;SDS011;58450;52.150;4.466;2022-12-29T07:18:48;17.35;;;3.20;;
66272;SDS011;58450;52.150;4.466;2022-12-29T07:21:16;17.10;;;3.53;;
66272;SDS011;58450;52.150;4.466;2022-12-29T07:23:43;22.98;;;3.10;;
66272;SDS011;58450;52.150;4.466;2022-12-29T07:26:12;19.88;;;3.20;;
66272;SDS011;58450;52.150;4.466;2022-12-29T07:28:43;17.05;;;3.65;;
66272;SDS011;58450;52.150;4.466;2022-12-29T07:31:12;18.20;;;3.38;;
66272;SDS011;58450;52.150;4.466;2022-12-29T07:33:42;19.67;;;3.00;;
66272;SDS011;58450;52.150;4.466;2022-12-29T07:36:12;16.67;;;2.78;;
66272;SDS011;58450;52.150;4.466;2022-12-29T07:38:40;14.15;;;2.60;;
66272;SDS011;58450;52.150;4.466;2022-12-29T07:41:08;19.77;;;3.50;;
66272;SDS011;58450;52.150;4.466;2022-12-29T07:43:36;16.80;;;3.33;;
66272;SDS011;58450;52.150;4.466;2022-12-29T07:46:04;15.48;;;3.03;;
66272;SDS011;58450;52.150;4.466;2022-12-29T07:48:31;19.33;;;3.50;;
66272;SDS011;58450;52.150;4.466;2022-12-29T07:51:01;18.17;;;2.70;;
66272;SDS011;58450;52.150;4.466;2022-12-29T07:53:30;23.17;;;2.85;;
66272;SDS011;58450;52.150;4.466;2022-12-29T07:55:58;16.83;;;2.58;;
66272;SDS011;58450;52.150;4.466;2022-12-29T07:58:25;25.05;;;3.40;;
66272;SDS011;58450;52.150;4.466;2022-12-29T08:00:53;16.33;;;2.97;;
66272;SDS011;58450;52.150;4.466;2022-12-29T08:03:21;16.88;;;3.22;;
66272;SDS011;58450;52.150;4.466;2022-12-29T08:05:49;19.90;;;2.80;;
66272;SDS011;58450;52.150;4.466;2022-12-29T08:08:17;23.52;;;3.67;;
66272;SDS011;58450;52.150;4.466;2022-12-29T08:10:46;16.17;;;2.58;;
66272;SDS011;58450;52.150;4.466;2022-12-29T08:13:14;19.25;;;3.50;;
66272;SDS011;58450;52.150;4.466;2022-12-29T08:15:41;21.30;;;3.28;;
66272;SDS011;58450;52.150;4.466;2022-12-29T08:18:09;20.75;;;3.45;;
66272;SDS011;58450;52.150;4.466;2022-12-29T08:20:36;25.13;;;3.63;;
66272;SDS011;58450;52.150;4.466;2022-12-29T08:23:04;20.45;;;3.35;;
66272;SDS011;58450;52.150;4.466;2022-12-29T08:25:31;14.10;;;2.60;;
66272;SDS011;58450;52.150;4.466;2022-12-29T08:28:00;29.38;;;4.05;;
66272;SDS011;58450;52.150;4.466;2022-12-29T08:30:28;21.73;;;3.10;;
66272;SDS011;58450;52.150;4.466;2022-12-29T08:32:56;20.70;;;3.25;;
66272;SDS011;58450;52.150;4.466;2022-12-29T08:35:23;18.08;;;3.40;;
66272;SDS011;58450;52.150;4.466;2022-12-29T08:37:51;19.25;;;3.63;;
66272;SDS011;58450;52.150;4.466;2022-12-29T08:40:19;18.83;;;3.60;;
66272;SDS011;58450;52.150;4.466;2022-12-29T08:42:46;17.92;;;2.97;;
66272;SDS011;58450;52.150;4.466;2022-12-29T08:45:15;17.90;;;2.95;;
66272;SDS011;58450;52.150;4.466;2022-12-29T08:47:43;23.30;;;3.58;;
66272;SDS011;58450;52.150;4.466;2022-12-29T08:50:11;22.40;;;3.60;;
66272;SDS011;58450;52.150;4.466;2022-12-29T08:52:38;19.45;;;3.35;;
66272;SDS011;58450;52.150;4.466;2022-12-29T08:55:06;18.70;;;3.22;;
66272;SDS011;58450;52.150;4.466;2022-12-29T08:57:35;20.90;;;3.10;;
66272;SDS011;58450;52.150;4.466;2022-12-29T09:00:03;18.35;;;3.55;;
66272;SDS011;58450;52.150;4.466;2022-12-29T09:02:33;12.95;;;3.53;;
66272;SDS011;58450;52.150;4.466;2022-12-29T09:05:00;18.13;;;3.83;;
66272;SDS011;58450;52.150;4.466;2022-12-29T09:07:28;20.15;;;3.58;;
66272;SDS011;58450;52.150;4.466;2022-12-29T09:09:56;25.10;;;4.10;;
66272;SDS011;58450;52.150;4.466;2022-12-29T09:12:23;23.33;;;4.00;;
66272;SDS011;58450;52.150;4.466;2022-12-29T09:14:51;20.05;;;3.92;;
66272;SDS011;58450;52.150;4.466;2022-12-29T09:17:19;21.23;;;3.28;;
66272;SDS011;58450;52.150;4.466;2022-12-29T09:20:06;19.05;;;3.25;;
66272;SDS011;58450;52.150;4.466;2022-12-29T09:22:34;17.77;;;3.55;;
66272;SDS011;58450;52.150;4.466;2022-12-29T09:25:03;20.77;;;3.45;;
66272;SDS011;58450;52.150;4.466;2022-12-29T09:27:32;25.27;;;3.95;;
66272;SDS011;58450;52.150;4.466;2022-12-29T09:30:00;25.00;;;3.80;;
66272;SDS011;58450;52.150;4.466;2022-12-29T09:32:28;21.50;;;4.28;;
66272;SDS011;58450;52.150;4.466;2022-12-29T09:34:55;23.92;;;4.00;;
66272;SDS011;58450;52.150;4.466;2022-12-29T09:37:24;23.30;;;3.90;;
66272;SDS011;58450;52.150;4.466;2022-12-29T09:39:52;26.48;;;4.07;;
66272;SDS011;58450;52.150;4.466;2022-12-29T09:42:22;26.63;;;4.72;;
66272;SDS011;58450;52.150;4.466;2022-12-29T09:45:03;27.58;;;4.80;;
66272;SDS011;58450;52.150;4.466;2022-12-29T09:47:38;25.08;;;4.20;;
66272;SDS011;58450;52.150;4.466;2022-12-29T09:50:09;22.67;;;3.58;;
66272;SDS011;58450;52.150;4.466;2022-12-29T09:52:50;32.42;;;5.22;;
66272;SDS011;58450;52.150;4.466;2022-12-29T09:55:30;30.05;;;4.82;;
66272;SDS011;58450;52.150;4.466;2022-12-29T09:58:06;30.98;;;5.25;;
66272;SDS011;58450;52.150;4.466;2022-12-29T10:00:47;27.25;;;4.72;;
66272;SDS011;58450;52.150;4.466;2022-12-29T10:03:24;32.25;;;5.63;;
66272;SDS011;58450;52.150;4.466;2022-12-29T10:06:07;37.72;;;5.07;;
66272;SDS011;58450;52.150;4.466;2022-12-29T10:08:47;29.20;;;5.05;;
66272;SDS011;58450;52.150;4.466;2022-12-29T10:11:29;32.13;;;5.60;;
66272;SDS011;58450;52.150;4.466;2022-12-29T10:14:24;27.52;;;4.97;;
66272;SDS011;58450;52.150;4.466;2022-12-29T10:17:08;25.58;;;5.35;;
66272;SDS011;58450;52.150;4.466;2022-12-29T10:22:53;26.98;;;4.65;;
66272;SDS011;58450;52.150;4.466;2022-12-29T10:25:47;23.88;;;4.30;;
66272;SDS011;58450;52.150;4.466;2022-12-29T10:28:16;26.20;;;5.57;;
66272;SDS011;58450;52.150;4.466;2022-12-29T10:33:19;25.58;;;4.32;;
66272;SDS011;58450;52.150;4.466;2022-12-29T10:38:22;19.48;;;3.78;;
66272;SDS011;58450;52.150;4.466;2022-12-29T10:41:02;23.90;;;4.40;;
66272;SDS011;58450;52.150;4.466;2022-12-29T10:43:41;19.77;;;3.70;;
66272;SDS011;58450;52.150;4.466;2022-12-29T10:46:14;27.10;;;4.50;;
66272;SDS011;58450;52.150;4.466;2022-12-29T10:48:47;24.20;;;4.00;;
66272;SDS011;58450;52.150;4.466;2022-12-29T10:51:17;18.92;;;3.65;;
66272;SDS011;58450;52.150;4.466;2022-12-29T10:53:51;23.77;;;3.85;;
66272;SDS011;58450;52.150;4.466;2022-12-29T10:56:28;17.67;;;2.90;;
66272;SDS011;58450;52.150;4.466;2022-12-29T10:59:02;18.25;;;2.80;;
66272;SDS011;58450;52.150;4.466;2022-12-29T11:01:41;16.42;;;3.17;;
66272;SDS011;58450;52.150;4.466;2022-12-29T11:04:31;16.52;;;3.72;;
66272;SDS011;58450;52.150;4.466;2022-12-29T11:07:14;13.32;;;2.50;;
66272;SDS011;58450;52.150;4.466;2022-12-29T11:09:45;15.90;;;2.80;;
66272;SDS011;58450;52.150;4.466;2022-12-29T11:12:19;16.35;;;2.60;;
66272;SDS011;58450;52.150;4.466;2022-12-29T11:15:00;12.98;;;2.33;;
66272;SDS011;58450;52.150;4.466;2022-12-29T11:17:42;15.73;;;2.63;;
66272;SDS011;58450;52.150;4.466;2022-12-29T11:20:29;15.60;;;2.30;;
66272;SDS011;58450;52.150;4.466;2022-12-29T11:23:00;20.73;;;3.17;;
66272;SDS011;58450;52.150;4.466;2022-12-29T11:25:29;21.10;;;3.15;;
66272;SDS011;58450;52.150;4.466;2022-12-29T11:27:59;18.92;;;3.17;;
66272;SDS011;58450;52.150;4.466;2022-12-29T11:30:30;12.75;;;2.60;;
66272;SDS011;58450;52.150;4.466;2022-12-29T11:32:58;11.45;;;2.35;;
66272;SDS011;58450;52.150;4.466;2022-12-29T11:35:32;13.50;;;3.38;;
66272;SDS011;58450;52.150;4.466;2022-12-29T11:38:03;12.05;;;2.83;;
66272;SDS011;58450;52.150;4.466;2022-12-29T11:40:32;10.80;;;2.20;;
66272;SDS011;58450;52.150;4.466;2022-12-29T11:43:11;13.43;;;1.98;;
66272;SDS011;58450;52.150;4.466;2022-12-29T11:45:53;10.02;;;1.88;;
66272;SDS011;58450;52.150;4.466;2022-12-29T11:48:22;13.57;;;2.38;;
66272;SDS011;58450;52.150;4.466;2022-12-29T11:50:56;14.20;;;2.58;;
66272;SDS011;58450;52.150;4.466;2022-12-29T11:53:27;15.45;;;2.25;;
66272;SDS011;58450;52.150;4.466;2022-12-29T11:56:08;13.18;;;2.13;;
66272;SDS011;58450;52.150;4.466;2022-12-29T11:58:42;11.40;;;2.05;;
66272;SDS011;58450;52.150;4.466;2022-12-29T12:01:11;12.52;;;2.17;;
66272;SDS011;58450;52.150;4.466;2022-12-29T12:03:47;12.63;;;1.80;;
66272;SDS011;58450;52.150;4.466;2022-12-29T12:06:25;8.57;;;1.95;;
66272;SDS011;58450;52.150;4.466;2022-12-29T12:08:59;9.38;;;1.70;;
66272;SDS011;58450;52.150;4.466;2022-12-29T12:11:36;11.73;;;1.63;;
66272;SDS011;58450;52.150;4.466;2022-12-29T12:14:13;12.68;;;1.70;;
66272;SDS011;58450;52.150;4.466;2022-12-29T12:16:49;8.60;;;1.90;;
66272;SDS011;58450;52.150;4.466;2022-12-29T12:22:00;11.18;;;2.25;;
66272;SDS011;58450;52.150;4.466;2022-12-29T12:24:39;11.70;;;2.10;;
66272;SDS011;58450;52.150;4.466;2022-12-29T12:27:16;8.60;;;2.20;;
66272;SDS011;58450;52.150;4.466;2022-12-29T12:29:52;10.73;;;2.47;;
66272;SDS011;58450;52.150;4.466;2022-12-29T12:32:29;12.82;;;2.53;;
66272;SDS011;58450;52.150;4.466;2022-12-29T12:35:11;17.88;;;3.00;;
66272;SDS011;58450;52.150;4.466;2022-12-29T12:37:43;15.48;;;2.55;;
66272;SDS011;58450;52.150;4.466;2022-12-29T12:40:39;13.60;;;3.03;;
66272;SDS011;58450;52.150;4.466;2022-12-29T12:43:33;16.35;;;3.10;;
66272;SDS011;58450;52.150;4.466;2022-12-29T12:46:13;13.50;;;2.90;;
66272;SDS011;58450;52.150;4.466;2022-12-29T12:49:36;16.65;;;2.33;;
66272;SDS011;58450;52.150;4.466;2022-12-29T12:52:46;13.05;;;2.50;;
66272;SDS011;58450;52.150;4.466;2022-12-29T12:55:53;15.55;;;3.17;;
66272;SDS011;58450;52.150;4.466;2022-12-29T12:58:38;14.40;;;2.50;;
66272;SDS011;58450;52.150;4.466;2022-12-29T13:01:21;16.33;;;2.55;;
66272;SDS011;58450;52.150;4.466;2022-12-29T13:04:30;13.88;;;2.53;;
66272;SDS011;58450;52.150;4.466;2022-12-29T13:07:22;12.65;;;2.75;;
66272;SDS011;58450;52.150;4.466;2022-12-29T13:10:15;14.27;;;2.58;;
66272;SDS011;58450;52.150;4.466;2022-12-29T13:13:15;12.55;;;2.28;;
66272;SDS011;58450;52.150;4.466;2022-12-29T13:16:05;11.15;;;2.95;;
66272;SDS011;58450;52.150;4.466;2022-12-29T13:18:46;12.68;;;2.45;;
66272;SDS011;58450;52.150;4.466;2022-12-29T13:21:27;13.63;;;2.95;;
66272;SDS011;58450;52.150;4.466;2022-12-29T13:24:10;12.23;;;2.60;;
66272;SDS011;58450;52.150;4.466;2022-12-29T13:26:47;14.15;;;2.63;;
66272;SDS011;58450;52.150;4.466;2022-12-29T13:29:22;17.20;;;2.95;;
66272;SDS011;58450;52.150;4.466;2022-12-29T13:32:03;15.55;;;2.83;;
66272;SDS011;58450;52.150;4.466;2022-12-29T13:34:52;13.80;;;2.47;;
66272;SDS011;58450;52.150;4.466;2022-12-29T13:37:36;15.07;;;2.70;;
66272;SDS011;58450;52.150;4.466;2022-12-29T13:40:18;18.70;;;3.13;;
66272;SDS011;58450;52.150;4.466;2022-12-29T13:42:52;18.67;;;3.83;;
66272;SDS011;58450;52.150;4.466;2022-12-29T13:45:24;20.63;;;2.88;;
66272;SDS011;58450;52.150;4.466;2022-12-29T13:47:57;19.48;;;3.53;;
66272;SDS011;58450;52.150;4.466;2022-12-29T13:50:38;16.85;;;2.85;;
66272;SDS011;58450;52.150;4.466;2022-12-29T13:53:10;15.77;;;2.78;;
66272;SDS011;58450;52.150;4.466;2022-12-29T13:55:53;10.95;;;2.53;;
66272;SDS011;58450;52.150;4.466;2022-12-29T13:58:31;12.75;;;2.22;;
66272;SDS011;58450;52.150;4.466;2022-12-29T14:01:12;11.52;;;2.58;;
66272;SDS011;58450;52.150;4.466;2022-12-29T14:03:49;11.75;;;2.33;;
66272;SDS011;58450;52.150;4.466;2022-12-29T14:06:22;14.65;;;2.50;;
66272;SDS011;58450;52.150;4.466;2022-12-29T14:08:53;13.13;;;2.53;;
66272;SDS011;58450;52.150;4.466;2022-12-29T14:11:24;16.00;;;2.50;;
66272;SDS011;58450;52.150;4.466;2022-12-29T14:13:59;15.52;;;2.72;;
66272;SDS011;58450;52.150;4.466;2022-12-29T14:16:38;13.20;;;2.30;;
66272;SDS011;58450;52.150;4.466;2022-12-29T14:19:12;13.55;;;2.60;;
66272;SDS011;58450;52.150;4.466;2022-12-29T14:21:55;10.27;;;2.40;;
66272;SDS011;58450;52.150;4.466;2022-12-29T14:24:37;17.27;;;2.42;;
66272;SDS011;58450;52.150;4.466;2022-12-29T14:33:17;11.35;;;2.88;;
66272;SDS011;58450;52.150;4.466;2022-12-29T14:35:46;17.05;;;2.72;;
66272;SDS011;58450;52.150;4.466;2022-12-29T14:38:20;16.67;;;3.08;;
66272;SDS011;58450;52.150;4.466;2022-12-29T14:40:51;12.52;;;2.58;;
66272;SDS011;58450;52.150;4.466;2022-12-29T14:43:40;21.00;;;2.90;;
66272;SDS011;58450;52.150;4.466;2022-12-29T14:46:18;15.70;;;2.55;;
66272;SDS011;58450;52.150;4.466;2022-12-29T14:48:45;14.93;;;2.75;;
66272;SDS011;58450;52.150;4.466;2022-12-29T14:51:17;20.00;;;2.92;;
66272;SDS011;58450;52.150;4.466;2022-12-29T14:53:56;22.27;;;3.58;;
66272;SDS011;58450;52.150;4.466;2022-12-29T14:56:24;21.88;;;3.60;;
66272;SDS011;58450;52.150;4.466;2022-12-29T14:58:57;16.07;;;2.90;;
66272;SDS011;58450;52.150;4.466;2022-12-29T15:01:35;20.08;;;3.10;;
66272;SDS011;58450;52.150;4.466;2022-12-29T15:04:13;21.48;;;3.08;;
66272;SDS011;58450;52.150;4.466;2022-12-29T15:06:46;18.25;;;2.70;;
66272;SDS011;58450;52.150;4.466;2022-12-29T15:09:24;17.52;;;3.20;;
66272;SDS011;58450;52.150;4.466;2022-12-29T15:12:00;16.75;;;2.85;;
66272;SDS011;58450;52.150;4.466;2022-12-29T15:14:47;17.67;;;3.17;;
66272;SDS011;58450;52.150;4.466;2022-12-29T15:17:24;16.20;;;2.78;;
66272;SDS011;58450;52.150;4.466;2022-12-29T15:19:55;16.40;;;2.50;;
66272;SDS011;58450;52.150;4.466;2022-12-29T15:22:25;16.67;;;3.03;;
66272;SDS011;58450;52.150;4.466;2022-12-29T15:24:55;18.48;;;2.50;;
66272;SDS011;58450;52.150;4.466;2022-12-29T15:27:25;14.95;;;2.78;;
66272;SDS011;58450;52.150;4.466;2022-12-29T15:29:56;19.95;;;3.00;;
66272;SDS011;58450;52.150;4.466;2022-12-29T15:32:28;16.52;;;3.08;;
66272;SDS011;58450;52.150;4.466;2022-12-29T15:35:20;16.00;;;3.05;;
66272;SDS011;58450;52.150;4.466;2022-12-29T15:37:53;20.45;;;3.10;;